Terminal Aerodrome Forecast
Issued by NWS Northern Indiana

Home | Current Version | Previous Version | Graphics & Text | Print | Product List | Glossary On
Versions: 1 2 3 4 5 6 7 8 9 10 11 12 13 14 15
000
FTUS43 KIWX 282300
TAFFWA
TAF
KFWA 282338Z 2900/2924 13008KT P6SM BKN250
     FM290500 15014KT P6SM OVC150 WS020/20050KT
     FM291000 18017G24KT 6SM -SHRA BR OVC070 WS020/21050KT
     FM291400 20014KT 4SM BR OVC015=

USA.gov is the U.S. government's official web portal to all federal, state and local government web resources and services.